createdAt,value
2022-10-13T00:00:47.915Z,5.57
2022-10-13T00:03:15.242Z,6.75
2022-10-13T00:05:47.821Z,7.03
2022-10-13T00:08:19.383Z,7.95
2022-10-13T00:10:48.696Z,7.78
2022-10-13T00:13:19.877Z,7.80
2022-10-13T00:15:48.146Z,8.52
2022-10-13T00:18:16.057Z,8.07
2022-10-13T00:20:48.211Z,7.65
2022-10-13T00:23:16.311Z,6.95
2022-10-13T00:25:48.469Z,7.55
2022-10-13T00:28:17.720Z,6.80
2022-10-13T00:30:45.300Z,6.88
2022-10-13T00:33:13.058Z,6.68
2022-10-13T00:35:47.614Z,6.20
2022-10-13T00:38:16.540Z,7.20
2022-10-13T00:40:49.008Z,6.80
2022-10-13T00:43:24.431Z,6.20
2022-10-13T00:45:52.605Z,7.22
2022-10-13T00:48:24.761Z,7.88
2022-10-13T00:50:53.041Z,8.20
2022-10-13T00:53:24.373Z,7.57
2022-10-13T00:55:52.245Z,7.07
2022-10-13T00:58:22.099Z,7.93
2022-10-13T01:00:51.142Z,7.47
2022-10-13T01:03:21.283Z,8.43
2022-10-13T01:05:50.112Z,7.65
2022-10-13T01:08:19.047Z,7.90
2022-10-13T01:11:07.706Z,6.88
2022-10-13T01:14:24.111Z,7.80
2022-10-13T01:17:04.420Z,6.57
2022-10-13T01:20:08.116Z,7.22
2022-10-13T01:22:56.139Z,8.38
2022-10-13T01:25:44.479Z,7.07
2022-10-13T01:28:34.669Z,6.70
2022-10-13T01:31:24.856Z,7.40
2022-10-13T01:34:05.463Z,7.43
2022-10-13T01:36:43.767Z,7.45
2022-10-13T01:39:39.980Z,7.07
2022-10-13T01:42:53.183Z,7.78
2022-10-13T01:45:24.255Z,6.90
2022-10-13T01:47:53.016Z,6.97
2022-10-13T01:50:20.856Z,7.40
2022-10-13T01:52:50.345Z,6.55
2022-10-13T01:55:17.252Z,7.20
2022-10-13T01:57:45.633Z,7.30
2022-10-13T02:00:14.725Z,7.57
2022-10-13T02:03:07.609Z,7.32
2022-10-13T02:05:42.566Z,7.55
2022-10-13T02:08:31.003Z,7.60
2022-10-13T02:11:14.591Z,7.80
2022-10-13T02:13:51.876Z,7.75
2022-10-13T02:16:23.726Z,7.22
2022-10-13T02:18:51.905Z,7.85
2022-10-13T02:21:19.048Z,7.72
2022-10-13T02:23:46.453Z,7.30
2022-10-13T02:26:14.107Z,8.25
2022-10-13T02:28:41.609Z,7.50
2022-10-13T02:31:09.513Z,7.32
2022-10-13T02:33:36.765Z,7.80
2022-10-13T02:36:04.031Z,6.80
2022-10-13T02:38:31.193Z,7.78
2022-10-13T02:40:58.376Z,8.05
2022-10-13T02:43:25.546Z,6.32
2022-10-13T02:45:52.483Z,7.45
2022-10-13T02:48:19.462Z,7.13
2022-10-13T02:50:47.631Z,7.57
2022-10-13T02:53:14.628Z,6.28
2022-10-13T02:55:41.675Z,6.57
2022-10-13T02:58:08.674Z,7.05
2022-10-13T03:00:35.654Z,6.95
2022-10-13T03:03:03.012Z,6.80
2022-10-13T03:05:29.984Z,7.78
2022-10-13T03:07:57.259Z,7.50
2022-10-13T03:10:24.242Z,7.78
2022-10-13T03:12:52.045Z,6.63
2022-10-13T03:15:18.964Z,7.65
2022-10-13T03:17:48.587Z,8.27
2022-10-13T03:20:16.044Z,7.65
2022-10-13T03:22:46.064Z,7.80
2022-10-13T03:25:16.690Z,7.22
2022-10-13T03:27:43.691Z,6.97
2022-10-13T03:30:11.589Z,7.68
2022-10-13T03:32:40.683Z,7.78
2022-10-13T03:35:08.264Z,7.70
2022-10-13T03:37:35.169Z,7.90
2022-10-13T03:40:02.096Z,7.38
2022-10-13T03:42:29.028Z,7.28
2022-10-13T03:44:56.664Z,6.80
2022-10-13T03:47:24.037Z,7.03
2022-10-13T03:49:51.002Z,7.65
2022-10-13T03:52:18.311Z,7.00
2022-10-13T03:54:45.467Z,6.47
2022-10-13T03:57:12.492Z,6.88
2022-10-13T03:59:42.556Z,7.10
2022-10-13T04:02:09.496Z,6.90
2022-10-13T04:04:38.486Z,7.50
2022-10-13T04:07:06.973Z,7.57
2022-10-13T04:09:34.263Z,7.07
2022-10-13T04:12:01.284Z,7.35
2022-10-13T04:14:28.186Z,7.57
2022-10-13T04:17:01.199Z,7.13
2022-10-13T04:19:28.170Z,7.68
2022-10-13T04:21:55.051Z,7.45
2022-10-13T04:24:22.051Z,7.35
2022-10-13T04:26:48.971Z,7.63
2022-10-13T04:29:16.001Z,7.38
2022-10-13T04:31:43.926Z,7.20
2022-10-13T04:34:12.198Z,7.18
2022-10-13T04:36:39.323Z,6.95
2022-10-13T04:39:06.320Z,7.70
2022-10-13T04:41:34.447Z,6.97
2022-10-13T04:44:02.556Z,7.07
2022-10-13T04:46:29.748Z,6.65
2022-10-13T04:48:57.689Z,7.50
2022-10-13T04:51:32.400Z,7.32
2022-10-13T04:54:03.486Z,7.35
2022-10-13T04:56:30.420Z,7.70
2022-10-13T04:59:02.634Z,8.05
2022-10-13T05:01:29.592Z,7.80
2022-10-13T05:03:59.929Z,7.95
2022-10-13T05:06:30.057Z,7.05
2022-10-13T05:08:57.811Z,7.53
2022-10-13T05:11:26.761Z,7.53
2022-10-13T05:13:54.554Z,7.95
2022-10-13T05:16:22.433Z,7.07
2022-10-13T05:18:51.197Z,7.40
2022-10-13T05:21:23.888Z,7.65
2022-10-13T05:23:54.326Z,7.15
2022-10-13T05:26:28.968Z,7.38
2022-10-13T05:29:00.137Z,7.10
2022-10-13T05:33:59.837Z,6.97
2022-10-13T05:36:33.067Z,7.38
2022-10-13T05:39:02.927Z,7.70
2022-10-13T05:41:30.746Z,7.70
2022-10-13T05:44:03.146Z,7.57
2022-10-13T05:46:30.230Z,7.20
2022-10-13T05:48:57.356Z,8.32
2022-10-13T05:51:32.239Z,8.27
2022-10-13T05:54:14.485Z,8.53
2022-10-13T05:56:59.998Z,9.38
2022-10-13T05:59:30.763Z,7.63
2022-10-13T06:01:58.012Z,8.10
2022-10-13T06:04:31.761Z,7.95
2022-10-13T06:06:58.769Z,7.45
2022-10-13T06:09:32.075Z,8.57
2022-10-13T06:11:58.974Z,8.73
2022-10-13T06:14:25.879Z,8.05
2022-10-13T06:16:52.864Z,8.23
2022-10-13T06:19:19.759Z,9.15
2022-10-13T06:21:46.706Z,9.35
2022-10-13T06:24:13.636Z,9.60
2022-10-13T06:26:40.907Z,9.25
2022-10-13T06:29:08.189Z,10.10
2022-10-13T06:31:35.237Z,8.48
2022-10-13T06:34:02.803Z,9.48
2022-10-13T06:36:31.741Z,10.02
2022-10-13T06:38:58.787Z,10.68
2022-10-13T06:41:25.941Z,9.95
2022-10-13T06:43:52.880Z,9.90
2022-10-13T06:46:21.326Z,10.20
2022-10-13T06:48:52.247Z,10.52
2022-10-13T06:51:20.336Z,10.20
2022-10-13T06:53:47.278Z,10.00
2022-10-13T06:56:14.660Z,10.02
2022-10-13T06:58:41.580Z,9.82
2022-10-13T07:01:12.105Z,10.55
2022-10-13T07:03:39.176Z,10.88
2022-10-13T07:06:07.049Z,11.10
2022-10-13T07:08:35.260Z,11.25
2022-10-13T07:11:15.888Z,10.35
2022-10-13T07:13:46.418Z,9.63
2022-10-13T07:16:17.337Z,10.60
2022-10-13T07:18:44.387Z,11.45
2022-10-13T07:21:11.646Z,12.43
2022-10-13T07:23:38.705Z,11.05
2022-10-13T07:26:14.041Z,10.88
2022-10-13T07:28:41.435Z,10.40
2022-10-13T07:31:13.799Z,11.55
2022-10-13T07:33:42.576Z,10.93
2022-10-13T07:36:10.718Z,10.30
2022-10-13T07:38:37.770Z,10.38
2022-10-13T07:41:07.421Z,9.40
2022-10-13T07:43:35.059Z,10.02
2022-10-13T07:46:06.045Z,9.93
2022-10-13T07:48:34.914Z,10.90
2022-10-13T07:51:12.061Z,9.85
2022-10-13T07:53:40.550Z,10.60
2022-10-13T07:56:10.451Z,11.02
2022-10-13T07:58:38.785Z,9.20
2022-10-13T08:01:06.335Z,9.10
2022-10-13T08:03:40.197Z,8.98
2022-10-13T08:06:10.079Z,9.90
2022-10-13T08:08:37.554Z,10.25
2022-10-13T08:11:07.242Z,10.07
2022-10-13T08:13:34.879Z,10.38
2022-10-13T08:16:13.199Z,9.65
2022-10-13T08:18:40.236Z,9.52
2022-10-13T08:21:45.932Z,9.13
2022-10-13T08:23:59.896Z,9.73
2022-10-13T08:26:28.581Z,10.57
2022-10-13T08:29:16.658Z,9.30
2022-10-13T08:31:43.719Z,9.75
2022-10-13T08:34:12.008Z,10.43
2022-10-13T08:36:39.857Z,9.20
2022-10-13T08:39:06.872Z,9.82
2022-10-13T08:41:40.165Z,9.70
2022-10-13T08:47:30.107Z,9.00
2022-10-13T08:50:01.287Z,9.73
2022-10-13T08:52:42.988Z,10.00
2022-10-13T08:55:29.771Z,10.35
2022-10-13T08:57:57.133Z,9.45
2022-10-13T09:00:28.700Z,9.30
2022-10-13T09:03:08.219Z,9.40
2022-10-13T09:05:46.954Z,10.23
2022-10-13T09:08:21.179Z,9.90
2022-10-13T09:10:52.219Z,9.98
2022-10-13T09:13:20.380Z,9.57
2022-10-13T09:15:50.578Z,10.45
2022-10-13T09:18:17.628Z,10.07
2022-10-13T09:20:44.606Z,9.90
2022-10-13T09:23:14.410Z,9.32
2022-10-13T09:25:44.165Z,9.50
2022-10-13T09:28:25.879Z,9.40
2022-10-13T09:31:15.919Z,8.90
2022-10-13T09:33:43.712Z,10.18
2022-10-13T09:36:16.192Z,8.73
2022-10-13T09:39:13.596Z,9.23
2022-10-13T09:41:43.141Z,9.15
2022-10-13T09:44:27.696Z,8.88
2022-10-13T09:46:58.207Z,9.60
2022-10-13T09:49:40.326Z,10.25
2022-10-13T09:52:18.486Z,9.85
2022-10-13T09:54:51.903Z,9.63
2022-10-13T09:57:31.018Z,9.67
2022-10-13T10:00:17.140Z,9.98
2022-10-13T10:03:05.576Z,9.50
2022-10-13T10:05:42.064Z,10.00
2022-10-13T10:09:01.395Z,8.65
2022-10-13T10:11:50.216Z,8.90
2022-10-13T10:14:26.209Z,8.70
2022-10-13T10:17:30.465Z,7.82
2022-10-13T10:20:12.983Z,8.77
2022-10-13T10:23:01.273Z,8.63
2022-10-13T10:25:59.227Z,9.20
2022-10-13T10:28:49.517Z,8.65
2022-10-13T10:31:40.356Z,7.93
2022-10-13T10:34:31.448Z,8.15
2022-10-13T10:37:11.544Z,7.47
2022-10-13T10:39:59.953Z,8.15
2022-10-13T10:42:48.419Z,7.85
2022-10-13T10:45:41.247Z,8.02
2022-10-13T10:48:22.950Z,8.10
2022-10-13T10:50:54.336Z,7.68
2022-10-13T10:53:29.564Z,7.93
2022-10-13T10:56:13.455Z,7.95
2022-10-13T10:58:59.952Z,8.05
2022-10-13T11:01:35.098Z,8.43
2022-10-13T11:04:42.364Z,8.27
2022-10-13T11:07:38.669Z,7.22
2022-10-13T11:10:16.375Z,6.60
2022-10-13T11:12:51.881Z,7.95
2022-10-13T11:15:33.722Z,7.13
2022-10-13T11:18:00.755Z,6.95
2022-10-13T11:20:36.400Z,5.75
2022-10-13T11:23:03.423Z,6.35
2022-10-13T11:25:39.368Z,5.65
2022-10-13T11:28:42.767Z,5.18
2022-10-13T11:31:14.157Z,5.88
2022-10-13T11:33:41.060Z,5.65
2022-10-13T11:36:35.453Z,5.03
2022-10-13T11:42:09.521Z,5.60
2022-10-13T11:44:57.067Z,5.70
2022-10-13T11:47:42.356Z,5.35
2022-10-13T11:50:27.299Z,5.70
2022-10-13T11:53:26.283Z,5.05
2022-10-13T11:55:59.231Z,5.00
2022-10-13T11:58:27.803Z,4.72
2022-10-13T12:01:06.480Z,4.30
2022-10-13T12:03:37.493Z,4.00
2022-10-13T12:06:34.166Z,3.80
2022-10-13T12:09:17.611Z,4.20
2022-10-13T12:11:45.268Z,4.80
2022-10-13T12:14:52.441Z,5.10
2022-10-13T12:17:28.482Z,5.97
2022-10-13T12:19:58.718Z,8.88
2022-10-13T12:22:26.379Z,8.25
2022-10-13T12:25:02.375Z,9.52
2022-10-13T12:27:34.112Z,9.85
2022-10-13T12:30:02.176Z,10.00
2022-10-13T12:32:31.482Z,10.45
2022-10-13T12:35:39.816Z,11.50
2022-10-13T12:38:15.982Z,11.80
2022-10-13T12:40:43.233Z,11.23
2022-10-13T12:43:17.103Z,11.20
2022-10-13T12:45:45.797Z,10.25
2022-10-13T12:48:32.712Z,9.00
2022-10-13T12:51:23.789Z,8.57
2022-10-13T12:53:50.813Z,9.43
2022-10-13T12:56:30.867Z,9.23
2022-10-13T12:58:58.782Z,9.48
2022-10-13T13:01:34.187Z,8.82
2022-10-13T13:04:22.762Z,9.35
2022-10-13T13:06:59.043Z,9.35
2022-10-13T13:09:31.297Z,9.20
2022-10-13T13:12:13.287Z,8.68
2022-10-13T13:14:42.763Z,8.48
2022-10-13T13:17:33.012Z,7.97
2022-10-13T13:20:30.096Z,7.28
2022-10-13T13:22:57.151Z,7.30
2022-10-13T13:25:24.594Z,7.82
2022-10-13T13:27:52.533Z,7.30
2022-10-13T13:30:21.701Z,7.93
2022-10-13T13:32:49.272Z,6.70
2022-10-13T13:35:16.822Z,7.72
2022-10-13T13:37:51.529Z,7.70
2022-10-13T13:40:21.484Z,7.50
2022-10-13T13:42:48.761Z,6.82
2022-10-13T13:45:17.899Z,7.47
2022-10-13T13:47:45.065Z,7.70
2022-10-13T13:50:15.195Z,7.72
2022-10-13T13:52:44.928Z,7.63
2022-10-13T13:55:14.134Z,7.13
2022-10-13T13:57:43.104Z,7.22
2022-10-13T14:00:15.312Z,6.78
2022-10-13T14:02:44.882Z,6.20
2022-10-13T14:05:12.523Z,7.18
2022-10-13T14:07:40.625Z,7.07
2022-10-13T14:10:09.120Z,6.20
2022-10-13T14:12:36.429Z,6.00
2022-10-13T14:15:03.721Z,6.10
2022-10-13T14:17:31.615Z,4.93
2022-10-13T14:20:00.584Z,5.70
2022-10-13T14:22:27.715Z,5.40
2022-10-13T14:24:54.712Z,5.43
2022-10-13T14:27:21.887Z,5.18
2022-10-13T14:29:48.898Z,4.75
2022-10-13T14:32:16.074Z,5.63
2022-10-13T14:34:43.071Z,5.13
2022-10-13T14:37:10.378Z,5.75
2022-10-13T14:39:37.452Z,5.55
2022-10-13T14:42:04.356Z,5.25
2022-10-13T14:44:31.352Z,4.80
2022-10-13T14:46:58.321Z,4.80
2022-10-13T14:49:25.902Z,4.97
2022-10-13T14:51:52.880Z,4.28
2022-10-13T14:54:19.914Z,4.75
2022-10-13T14:56:46.973Z,4.78
2022-10-13T14:59:13.977Z,4.40
2022-10-13T15:01:42.662Z,4.03
2022-10-13T15:04:10.260Z,4.05
2022-10-13T15:06:41.867Z,3.88
2022-10-13T15:11:42.168Z,3.53
2022-10-13T15:14:09.895Z,3.28
2022-10-13T15:16:37.952Z,3.35
2022-10-13T15:19:05.478Z,3.47
2022-10-13T15:21:32.502Z,4.53
2022-10-13T15:24:01.443Z,4.25
2022-10-13T15:26:28.590Z,3.88
2022-10-13T15:28:55.605Z,3.70
2022-10-13T15:31:23.874Z,3.90
2022-10-13T15:33:53.408Z,4.10
2022-10-13T15:36:22.062Z,3.40
2022-10-13T15:38:49.255Z,3.40
2022-10-13T15:41:16.312Z,3.25
2022-10-13T15:43:43.406Z,3.10
2022-10-13T15:46:21.797Z,3.20
2022-10-13T15:48:50.253Z,3.78
2022-10-13T15:51:19.673Z,3.30
2022-10-13T15:53:48.493Z,3.60
2022-10-13T15:56:16.493Z,3.42
2022-10-13T15:58:43.812Z,3.55
2022-10-13T16:01:12.295Z,3.70
2022-10-13T16:03:39.783Z,3.90
2022-10-13T16:06:08.859Z,3.63
2022-10-13T16:08:40.687Z,3.67
2022-10-13T16:11:09.216Z,3.63
2022-10-13T16:13:36.150Z,3.88
2022-10-13T16:16:03.315Z,4.10
2022-10-13T16:18:35.657Z,3.80
2022-10-13T16:21:29.024Z,4.15
2022-10-13T16:23:56.031Z,4.05
2022-10-13T16:26:23.159Z,4.60
2022-10-13T16:28:53.876Z,4.65
2022-10-13T16:31:20.858Z,4.75
2022-10-13T16:33:48.079Z,5.13
2022-10-13T16:36:17.655Z,4.60
2022-10-13T16:38:45.472Z,4.75
2022-10-13T16:41:14.775Z,4.00
2022-10-13T16:43:42.480Z,3.85
2022-10-13T16:46:13.462Z,4.32
2022-10-13T16:48:41.477Z,4.00
2022-10-13T16:51:16.649Z,4.38
2022-10-13T16:53:46.892Z,4.28
2022-10-13T16:56:14.390Z,3.60
2022-10-13T16:58:45.304Z,3.83
2022-10-13T17:01:13.282Z,4.10
2022-10-13T17:03:42.866Z,3.40
2022-10-13T17:06:10.630Z,3.30
2022-10-13T17:08:37.770Z,3.13
2022-10-13T17:11:06.292Z,3.63
2022-10-13T17:13:34.654Z,2.50
2022-10-13T17:16:01.837Z,2.90
2022-10-13T17:18:28.959Z,2.80
2022-10-13T17:20:57.267Z,3.03
2022-10-13T17:23:25.012Z,2.78
2022-10-13T17:25:53.309Z,3.10
2022-10-13T17:28:20.657Z,3.03
2022-10-13T17:30:58.217Z,2.80
2022-10-13T17:33:29.257Z,3.13
2022-10-13T17:36:00.924Z,3.08
2022-10-13T17:38:28.519Z,3.58
2022-10-13T17:41:04.594Z,3.28
2022-10-13T17:43:32.975Z,3.08
2022-10-13T17:46:40.316Z,3.00
2022-10-13T17:49:10.451Z,4.00
2022-10-13T17:51:37.505Z,3.53
2022-10-13T17:54:05.221Z,3.47
2022-10-13T17:56:32.452Z,3.67
2022-10-13T17:59:00.830Z,3.28
2022-10-13T18:01:31.870Z,3.55
2022-10-13T18:04:05.062Z,3.95
2022-10-13T18:06:38.637Z,4.53
2022-10-13T18:09:15.950Z,4.28
2022-10-13T18:11:49.710Z,4.53
2022-10-13T18:14:18.961Z,5.13
2022-10-13T18:16:48.962Z,4.70
2022-10-13T18:19:16.220Z,4.93
2022-10-13T18:21:43.503Z,5.10
2022-10-13T18:24:11.801Z,4.70
2022-10-13T18:26:39.633Z,5.50
2022-10-13T18:29:08.084Z,5.22
2022-10-13T18:31:37.192Z,5.00
2022-10-13T18:34:06.834Z,5.40
2022-10-13T18:36:35.091Z,5.78
2022-10-13T18:39:21.083Z,5.45
2022-10-13T18:41:49.268Z,5.15
2022-10-13T18:44:16.502Z,5.53
2022-10-13T18:46:43.663Z,5.00
2022-10-13T18:49:15.149Z,4.70
2022-10-13T18:51:43.798Z,5.30
2022-10-13T18:54:10.942Z,5.22
2022-10-13T18:56:38.196Z,5.45
2022-10-13T18:59:06.585Z,5.45
2022-10-13T19:01:35.535Z,5.60
2022-10-13T19:04:02.828Z,5.72
2022-10-13T19:06:32.220Z,5.53
2022-10-13T19:09:04.975Z,5.47
2022-10-13T19:11:34.876Z,5.75
2022-10-13T19:14:03.531Z,5.85
2022-10-13T19:16:31.927Z,6.25
2022-10-13T19:18:58.909Z,6.28
2022-10-13T19:21:26.707Z,6.38
2022-10-13T19:23:53.772Z,6.25
2022-10-13T19:26:25.440Z,6.43
2022-10-13T19:29:01.983Z,6.78
2022-10-13T19:31:31.295Z,6.50
2022-10-13T19:33:59.891Z,6.20
2022-10-13T19:36:33.297Z,6.30
2022-10-13T19:39:06.740Z,6.07
2022-10-13T19:41:34.616Z,6.30
2022-10-13T19:44:02.819Z,6.65
2022-10-13T19:46:40.343Z,6.55
2022-10-13T19:49:07.835Z,6.70
2022-10-13T19:51:35.491Z,6.13
2022-10-13T19:54:02.955Z,6.15
2022-10-13T19:56:31.651Z,5.88
2022-10-13T19:58:59.433Z,6.47
2022-10-13T20:01:27.058Z,6.70
2022-10-13T20:03:54.422Z,7.10
2022-10-13T20:06:21.879Z,6.53
2022-10-13T20:08:49.319Z,6.95
2022-10-13T20:11:23.399Z,7.15
2022-10-13T20:13:52.020Z,7.38
2022-10-13T20:16:23.446Z,8.05
2022-10-13T20:18:58.487Z,7.95
2022-10-13T20:21:27.206Z,8.30
2022-10-13T20:23:54.445Z,8.10
2022-10-13T20:26:22.133Z,8.65
2022-10-13T20:28:50.737Z,9.38
2022-10-13T20:31:19.786Z,8.35
2022-10-13T20:33:47.428Z,9.35
2022-10-13T20:36:16.888Z,9.77
2022-10-13T20:38:43.921Z,10.68
2022-10-13T20:41:27.357Z,10.70
2022-10-13T20:43:56.713Z,10.50
2022-10-13T20:46:24.227Z,10.80
2022-10-13T20:51:41.854Z,10.68
2022-10-13T20:54:10.002Z,10.90
2022-10-13T20:56:37.203Z,10.93
2022-10-13T20:59:06.160Z,11.02
2022-10-13T21:01:33.875Z,10.75
2022-10-13T21:04:00.778Z,11.65
2022-10-13T21:06:27.788Z,10.68
2022-10-13T21:08:57.094Z,11.20
2022-10-13T21:11:25.091Z,11.18
2022-10-13T21:14:03.569Z,11.75
2022-10-13T21:16:31.056Z,11.52
2022-10-13T21:18:58.926Z,10.95
2022-10-13T21:21:28.763Z,11.77
2022-10-13T21:23:57.940Z,10.80
2022-10-13T21:26:48.294Z,11.07
2022-10-13T21:29:15.353Z,11.60
2022-10-13T21:31:42.305Z,11.90
2022-10-13T21:34:10.866Z,11.68
2022-10-13T21:36:42.358Z,10.65
2022-10-13T21:39:11.278Z,11.13
2022-10-13T21:41:38.214Z,11.82
2022-10-13T21:44:05.183Z,11.57
2022-10-13T21:46:34.688Z,11.70
2022-10-13T21:49:04.633Z,11.48
2022-10-13T21:51:36.773Z,12.45
2022-10-13T21:54:08.866Z,11.88
2022-10-13T21:56:37.089Z,11.52
2022-10-13T21:59:05.261Z,12.63
2022-10-13T22:01:33.059Z,11.93
2022-10-13T22:04:02.703Z,11.73
2022-10-13T22:06:32.105Z,12.60
2022-10-13T22:09:01.213Z,12.50
2022-10-13T22:11:31.187Z,12.32
2022-10-13T22:13:59.485Z,12.02
2022-10-13T22:16:29.480Z,12.23
2022-10-13T22:18:57.462Z,12.00
2022-10-13T22:21:29.968Z,12.10
2022-10-13T22:23:59.211Z,11.73
2022-10-13T22:26:27.497Z,11.95
2022-10-13T22:28:54.838Z,12.23
2022-10-13T22:31:21.959Z,12.23
2022-10-13T22:33:49.031Z,11.85
2022-10-13T22:36:18.383Z,12.52
2022-10-13T22:38:46.930Z,12.25
2022-10-13T22:41:14.855Z,12.27
2022-10-13T22:43:44.410Z,12.55
2022-10-13T22:46:13.433Z,12.82
2022-10-13T22:48:41.698Z,12.60
2022-10-13T22:51:19.659Z,13.23
2022-10-13T22:53:47.022Z,15.40
2022-10-13T22:56:16.887Z,13.95
2022-10-13T22:58:44.107Z,14.65
2022-10-13T23:01:13.772Z,14.52
2022-10-13T23:03:40.981Z,15.50
2022-10-13T23:06:13.389Z,16.17
2022-10-13T23:08:40.544Z,15.63
2022-10-13T23:11:07.743Z,16.85
2022-10-13T23:13:34.803Z,16.55
2022-10-13T23:16:03.377Z,16.38
2022-10-13T23:18:34.463Z,16.23
2022-10-13T23:21:08.298Z,15.35
2022-10-13T23:26:08.191Z,16.63
2022-10-13T23:28:35.883Z,16.90
2022-10-13T23:31:04.956Z,17.05
2022-10-13T23:33:32.565Z,17.70
2022-10-13T23:36:01.161Z,17.60
2022-10-13T23:38:29.604Z,18.88
2022-10-13T23:41:01.739Z,18.23
2022-10-13T23:43:28.692Z,18.75
2022-10-13T23:45:55.592Z,20.13
2022-10-13T23:48:22.581Z,20.00
2022-10-13T23:50:49.478Z,20.30
2022-10-13T23:53:16.759Z,20.38
2022-10-13T23:55:43.702Z,20.25
2022-10-13T23:58:10.762Z,19.70
